createdAt,value
2023-03-05T00:00:13.024Z,99398.63
2023-03-05T00:03:16.029Z,99389.72
2023-03-05T00:06:24.315Z,99395.72
2023-03-05T00:09:26.982Z,99403.59
2023-03-05T00:12:30.369Z,99400.47
2023-03-05T00:15:32.952Z,99404.41
2023-03-05T00:18:36.654Z,99394.69
2023-03-05T00:21:41.892Z,99402.53
2023-03-05T00:24:44.775Z,99408.09
2023-03-05T00:27:47.487Z,99410.41
2023-03-05T00:30:50.668Z,99402.12
2023-03-05T00:33:55.416Z,99393.22
2023-03-05T00:36:58.476Z,99398.19
2023-03-05T00:40:01.330Z,99413.09
2023-03-05T00:43:04.694Z,99412.25
2023-03-05T00:46:07.377Z,99401.53
2023-03-05T00:49:10.362Z,99406.72
2023-03-05T00:52:13.047Z,99411.25
2023-03-05T00:55:16.097Z,99407.31
2023-03-05T00:58:18.839Z,99410.44
2023-03-05T01:01:22.311Z,99401.69
2023-03-05T01:04:25.150Z,99394.03
2023-03-05T01:07:28.142Z,99396.28
2023-03-05T01:10:30.911Z,99391.06
2023-03-05T01:13:33.915Z,99397.53
2023-03-05T01:16:36.580Z,99403.75
2023-03-05T01:19:46.593Z,99389.47
2023-03-05T01:22:49.789Z,99391.37
2023-03-05T01:25:59.589Z,99398.03
2023-03-05T01:29:02.578Z,99388.91
2023-03-05T01:32:05.776Z,99389.50
2023-03-05T01:35:09.265Z,99392.81
2023-03-05T01:38:12.247Z,99376.84
2023-03-05T01:41:16.630Z,99395.50
2023-03-05T01:44:25.260Z,99390.53
2023-03-05T01:47:28.192Z,99386.19
2023-03-05T01:50:32.971Z,99392.16
2023-03-05T01:53:36.480Z,99386.38
2023-03-05T01:56:41.175Z,99372.31
2023-03-05T01:59:48.639Z,99382.63
2023-03-05T02:02:52.544Z,99361.94
2023-03-05T02:05:55.412Z,99370.22
2023-03-05T02:08:59.696Z,99362.19
2023-03-05T02:12:02.762Z,99363.19
2023-03-05T02:15:06.564Z,99363.00
2023-03-05T02:18:10.534Z,99374.81
2023-03-05T02:21:14.011Z,99373.78
2023-03-05T02:24:35.112Z,99361.56
2023-03-05T02:27:40.727Z,99378.97
2023-03-05T02:30:43.447Z,99371.50
2023-03-05T02:33:47.119Z,99386.41
2023-03-05T02:36:55.516Z,99369.66
2023-03-05T02:39:58.912Z,99384.56
2023-03-05T02:43:01.806Z,99385.16
2023-03-05T02:46:05.816Z,99385.97
2023-03-05T02:49:08.754Z,99384.06
2023-03-05T02:52:11.856Z,99376.41
2023-03-05T02:55:14.632Z,99390.87
2023-03-05T02:58:18.410Z,99369.59
2023-03-05T03:01:21.854Z,99379.28
2023-03-05T03:04:25.916Z,99378.88
2023-03-05T03:07:28.652Z,99379.28
2023-03-05T03:10:31.672Z,99386.94
2023-03-05T03:13:34.486Z,99375.28
2023-03-05T03:16:37.579Z,99384.78
2023-03-05T03:19:41.315Z,99381.72
2023-03-05T03:22:46.240Z,99385.38
2023-03-05T03:25:48.934Z,99368.37
2023-03-05T03:28:52.102Z,99371.97
2023-03-05T03:31:54.773Z,99369.69
2023-03-05T03:34:58.235Z,99368.06
2023-03-05T03:38:00.923Z,99371.16
2023-03-05T03:41:08.060Z,99361.25
2023-03-05T03:44:11.301Z,99366.00
2023-03-05T03:47:14.471Z,99371.19
2023-03-05T03:50:18.435Z,99373.75
2023-03-05T03:53:21.414Z,99355.75
2023-03-05T03:56:24.166Z,99369.81
2023-03-05T03:59:27.120Z,99378.50
2023-03-05T04:02:29.781Z,99369.41
2023-03-05T04:05:32.741Z,99367.31
2023-03-05T04:08:36.143Z,99346.22
2023-03-05T04:11:39.327Z,99366.13
2023-03-05T04:14:41.928Z,99354.31
2023-03-05T04:17:44.912Z,99358.22
2023-03-05T04:20:47.669Z,99353.28
2023-03-05T04:23:50.637Z,99351.41
2023-03-05T04:26:53.839Z,99349.75
2023-03-05T04:29:56.799Z,99350.00
2023-03-05T04:32:59.450Z,99342.94
2023-03-05T04:36:02.568Z,99340.03
2023-03-05T04:39:05.555Z,99352.03
2023-03-05T04:42:09.633Z,99342.53
2023-03-05T04:45:13.128Z,99343.16
2023-03-05T04:48:17.085Z,99343.38
2023-03-05T04:51:19.760Z,99336.31
2023-03-05T04:54:22.816Z,99336.31
2023-03-05T04:57:25.436Z,99329.87
2023-03-05T05:00:28.383Z,99347.47
2023-03-05T05:03:31.300Z,99353.03
2023-03-05T05:06:34.244Z,99354.88
2023-03-05T05:09:38.132Z,99339.53
2023-03-05T05:12:41.617Z,99354.44
2023-03-05T05:15:44.296Z,99357.09
2023-03-05T05:18:47.324Z,99349.78
2023-03-05T05:21:50.000Z,99343.06
2023-03-05T05:24:53.235Z,99346.56
2023-03-05T05:27:55.866Z,99329.97
2023-03-05T05:30:58.986Z,99350.25
2023-03-05T05:34:01.772Z,99347.31
2023-03-05T05:37:04.748Z,99364.53
2023-03-05T05:40:08.363Z,99361.19
2023-03-05T05:43:11.340Z,99371.31
2023-03-05T05:46:19.281Z,99366.31
2023-03-05T05:49:22.311Z,99368.59
2023-03-05T05:52:25.215Z,99371.09
2023-03-05T05:55:28.273Z,99370.63
2023-03-05T05:58:31.053Z,99363.16
2023-03-05T06:01:34.984Z,99370.59
2023-03-05T06:04:38.696Z,99369.34
2023-03-05T06:07:41.689Z,99376.16
2023-03-05T06:10:44.612Z,99378.66
2023-03-05T06:13:48.974Z,99390.03
2023-03-05T06:16:51.977Z,99376.34
2023-03-05T06:19:55.764Z,99379.62
2023-03-05T06:22:58.723Z,99381.09
2023-03-05T06:26:04.081Z,99376.28
2023-03-05T06:29:07.299Z,99387.28
2023-03-05T06:32:10.142Z,99391.19
2023-03-05T06:35:14.159Z,99386.56
2023-03-05T06:38:16.848Z,99388.38
2023-03-05T06:41:22.699Z,99389.59
2023-03-05T06:44:25.864Z,99375.34
2023-03-05T06:47:28.849Z,99395.84
2023-03-05T06:50:35.350Z,99382.38
2023-03-05T06:53:38.534Z,99391.53
2023-03-05T06:56:43.986Z,99399.13
2023-03-05T06:59:47.074Z,99387.91
2023-03-05T07:02:49.889Z,99390.38
2023-03-05T07:05:52.959Z,99395.94
2023-03-05T07:08:56.914Z,99386.34
2023-03-05T07:11:59.872Z,99390.28
2023-03-05T07:15:02.966Z,99386.66
2023-03-05T07:18:06.511Z,99380.06
2023-03-05T07:21:12.964Z,99395.34
2023-03-05T07:24:16.014Z,99394.88
2023-03-05T07:27:18.729Z,99406.25
2023-03-05T07:30:21.872Z,99403.09
2023-03-05T07:33:25.720Z,99401.13
2023-03-05T07:36:29.190Z,99396.94
2023-03-05T07:39:31.951Z,99399.13
2023-03-05T07:42:34.991Z,99390.34
2023-03-05T07:45:44.322Z,99386.69
2023-03-05T07:48:47.497Z,99386.66
2023-03-05T07:51:50.198Z,99393.78
2023-03-05T07:54:53.153Z,99370.47
2023-03-05T07:57:55.796Z,99385.22
2023-03-05T08:00:58.966Z,99379.19
2023-03-05T08:04:05.461Z,99380.69
2023-03-05T08:07:08.266Z,99361.44
2023-03-05T08:10:11.626Z,99356.00
2023-03-05T08:13:14.366Z,99360.03
2023-03-05T08:16:19.691Z,99337.53
2023-03-05T08:19:22.545Z,99358.09
2023-03-05T08:22:26.792Z,99347.75
2023-03-05T08:25:29.490Z,99342.97
2023-03-05T08:28:34.437Z,99343.53
2023-03-05T08:31:38.162Z,99344.47
2023-03-05T08:34:41.176Z,99324.44
2023-03-05T08:37:43.852Z,99335.56
2023-03-05T08:40:48.696Z,99348.69
2023-03-05T08:43:51.479Z,99354.22
2023-03-05T08:46:54.648Z,99350.72
2023-03-05T08:49:58.536Z,99347.25
2023-03-05T08:53:01.645Z,99351.59
2023-03-05T08:56:04.892Z,99347.63
2023-03-05T08:59:08.739Z,99343.13
2023-03-05T09:02:13.398Z,99347.00
2023-03-05T09:05:16.629Z,99329.59
2023-03-05T09:08:20.317Z,99345.13
2023-03-05T09:11:23.593Z,99333.06
2023-03-05T09:14:28.505Z,99329.13
2023-03-05T09:17:32.892Z,99345.47
2023-03-05T09:20:36.957Z,99335.81
2023-03-05T09:23:42.029Z,99336.34
2023-03-05T09:26:46.491Z,99344.87
2023-03-05T09:29:50.586Z,99330.69
2023-03-05T09:32:53.513Z,99338.87
2023-03-05T09:35:56.490Z,99331.63
2023-03-05T09:38:59.735Z,99324.47
2023-03-05T09:42:23.497Z,99329.31
2023-03-05T09:45:38.476Z,99334.00
2023-03-05T09:48:52.131Z,99321.03
2023-03-05T09:52:04.113Z,99322.34
2023-03-05T09:55:40.573Z,99319.53
2023-03-05T09:59:11.434Z,99323.09
2023-03-05T10:02:29.888Z,99319.06
2023-03-05T10:05:49.268Z,99311.47
2023-03-05T10:09:13.480Z,99313.59
2023-03-05T10:12:43.086Z,99308.94
2023-03-05T10:15:57.975Z,99320.00
2023-03-05T10:19:20.443Z,99311.94
2023-03-05T10:22:28.333Z,99302.44
2023-03-05T10:25:59.053Z,99302.66
2023-03-05T10:29:07.338Z,99285.16
2023-03-05T10:32:27.390Z,99289.81
2023-03-05T10:35:36.132Z,99278.03
2023-03-05T10:39:16.053Z,99268.50
2023-03-05T10:42:36.520Z,99280.12
2023-03-05T10:45:44.760Z,99273.44
2023-03-05T10:48:59.194Z,99279.78
2023-03-05T10:52:18.685Z,99261.34
2023-03-05T10:55:22.767Z,99266.63
2023-03-05T10:58:28.462Z,99271.00
2023-03-05T11:01:32.365Z,99260.53
2023-03-05T11:04:39.301Z,99238.44
2023-03-05T11:07:43.609Z,99249.91
2023-03-05T11:10:48.346Z,99250.19
2023-03-05T11:13:58.892Z,99249.69
2023-03-05T11:17:04.344Z,99255.69
2023-03-05T11:20:32.034Z,99250.56
2023-03-05T11:23:35.223Z,99250.91
2023-03-05T11:26:37.948Z,99236.81
2023-03-05T11:29:48.711Z,99235.81
2023-03-05T11:33:10.369Z,99237.28
2023-03-05T11:36:26.170Z,99237.47
2023-03-05T11:39:31.869Z,99210.00
2023-03-05T11:42:34.892Z,99222.13
2023-03-05T11:45:37.633Z,99220.97
2023-03-05T11:48:45.670Z,99212.72
2023-03-05T11:52:13.155Z,99212.84
2023-03-05T11:55:19.338Z,99209.13
2023-03-05T11:58:21.971Z,99202.72
2023-03-05T12:01:28.457Z,99201.34
2023-03-05T12:04:33.837Z,99206.41
2023-03-05T12:07:41.991Z,99183.81
2023-03-05T12:10:45.299Z,99191.84
2023-03-05T12:13:55.464Z,99184.87
2023-03-05T12:17:31.669Z,99194.50
2023-03-05T12:20:49.776Z,99187.59
2023-03-05T12:23:59.151Z,99176.97
2023-03-05T12:27:04.864Z,99173.41
2023-03-05T12:30:36.590Z,99184.09
2023-03-05T12:33:44.458Z,99179.78
2023-03-05T12:36:47.436Z,99180.31
2023-03-05T12:40:21.018Z,99170.28
2023-03-05T12:43:32.651Z,99173.47
2023-03-05T12:46:39.319Z,99171.69
2023-03-05T12:49:46.179Z,99173.91
2023-03-05T12:52:48.751Z,99164.06
2023-03-05T12:56:00.416Z,99168.09
2023-03-05T12:59:04.337Z,99161.97
2023-03-05T13:02:29.143Z,99158.38
2023-03-05T13:05:36.529Z,99151.94
2023-03-05T13:08:39.835Z,99154.97
2023-03-05T13:11:44.697Z,99143.56
2023-03-05T13:15:04.560Z,99155.22
2023-03-05T13:18:20.005Z,99158.22
2023-03-05T13:21:29.726Z,99153.69
2023-03-05T13:24:32.566Z,99140.13
2023-03-05T13:27:35.981Z,99150.31
2023-03-05T13:30:39.051Z,99147.94
2023-03-05T13:33:53.300Z,99149.09
2023-03-05T13:37:00.250Z,99140.28
2023-03-05T13:40:19.026Z,99143.09
2023-03-05T13:43:21.944Z,99123.84
2023-03-05T13:46:25.941Z,99136.41
2023-03-05T13:49:29.005Z,99122.78
2023-03-05T13:52:37.918Z,99130.34
2023-03-05T13:55:41.309Z,99121.47
2023-03-05T13:58:55.043Z,99119.41
2023-03-05T14:02:04.325Z,99115.44
2023-03-05T14:05:15.444Z,99123.44
2023-03-05T14:08:26.536Z,99098.03
2023-03-05T14:11:30.204Z,99106.56
2023-03-05T14:14:38.363Z,99097.84
2023-03-05T14:17:44.329Z,99105.09
2023-03-05T14:21:22.486Z,99102.09
2023-03-05T14:24:28.724Z,99100.78
2023-03-05T14:27:35.437Z,99088.31
2023-03-05T14:30:38.450Z,99094.63
2023-03-05T14:33:41.147Z,99096.53
2023-03-05T14:36:51.680Z,99095.81
2023-03-05T14:40:12.911Z,99091.78
2023-03-05T14:43:16.074Z,99088.50
2023-03-05T14:46:18.760Z,99093.09
2023-03-05T14:49:22.071Z,99079.94
2023-03-05T14:52:25.817Z,99068.16
2023-03-05T14:55:33.792Z,99079.78
2023-03-05T14:58:41.498Z,99075.00
2023-03-05T15:01:45.176Z,99061.78
2023-03-05T15:04:48.363Z,99071.56
2023-03-05T15:07:52.326Z,99065.66
2023-03-05T15:10:55.562Z,99067.53
2023-03-05T15:13:58.490Z,99063.75
2023-03-05T15:17:01.152Z,99066.78
2023-03-05T15:20:10.358Z,99047.38
2023-03-05T15:23:13.081Z,99062.03
2023-03-05T15:26:16.470Z,99067.06
2023-03-05T15:29:19.251Z,99065.78
2023-03-05T15:32:22.465Z,99056.25
2023-03-05T15:35:25.585Z,99063.16
2023-03-05T15:38:28.680Z,99059.78
2023-03-05T15:41:31.361Z,99066.19
2023-03-05T15:44:34.700Z,99058.19
2023-03-05T15:47:37.448Z,99048.22
2023-03-05T15:50:43.143Z,99060.72
2023-03-05T15:53:46.568Z,99052.34
2023-03-05T15:56:50.190Z,99046.84
2023-03-05T15:59:54.904Z,99062.63
2023-03-05T16:02:58.021Z,99051.09
2023-03-05T16:06:00.999Z,99054.75
2023-03-05T16:09:05.201Z,99069.50
2023-03-05T16:12:12.610Z,99053.59
2023-03-05T16:15:17.647Z,99065.28
2023-03-05T16:18:21.587Z,99068.47
2023-03-05T16:21:24.597Z,99064.34
2023-03-05T16:24:27.710Z,99070.84
2023-03-05T16:27:30.785Z,99076.47
2023-03-05T16:30:33.839Z,99076.97
2023-03-05T16:33:36.488Z,99073.94
2023-03-05T16:36:40.718Z,99077.09
2023-03-05T16:39:43.398Z,99074.41
2023-03-05T16:42:46.486Z,99069.81
2023-03-05T16:45:49.171Z,99057.94
2023-03-05T16:48:52.916Z,99063.59
2023-03-05T16:51:56.691Z,99073.69
2023-03-05T16:55:00.861Z,99071.25
2023-03-05T16:58:03.963Z,99069.22
2023-03-05T17:01:16.141Z,99066.78
2023-03-05T17:04:19.097Z,99065.00
2023-03-05T17:07:22.209Z,99071.84
2023-03-05T17:10:25.628Z,99067.88
2023-03-05T17:13:28.662Z,99073.38
2023-03-05T17:16:32.029Z,99083.59
2023-03-05T17:19:34.964Z,99081.28
2023-03-05T17:22:37.605Z,99078.81
2023-03-05T17:25:40.702Z,99085.66
2023-03-05T17:28:44.423Z,99091.06
2023-03-05T17:31:53.080Z,99092.00
2023-03-05T17:34:56.946Z,99095.88
2023-03-05T17:38:02.206Z,99097.41
2023-03-05T17:41:05.124Z,99095.41
2023-03-05T17:44:08.071Z,99099.06
2023-03-05T17:47:10.738Z,99100.34
2023-03-05T17:50:14.249Z,99099.16
2023-03-05T17:53:17.297Z,99097.97
2023-03-05T17:56:24.142Z,99105.53
2023-03-05T17:59:28.172Z,99084.44
2023-03-05T18:02:31.469Z,99100.22
2023-03-05T18:05:34.568Z,99097.75
2023-03-05T18:08:37.207Z,99095.50
2023-03-05T18:11:43.237Z,99098.44
2023-03-05T18:14:45.864Z,99089.03
2023-03-05T18:17:49.041Z,99099.75
2023-03-05T18:20:51.973Z,99081.75
2023-03-05T18:23:55.051Z,99083.25
2023-03-05T18:26:57.893Z,99100.66
2023-03-05T18:30:00.969Z,99100.53
2023-03-05T18:33:04.608Z,99095.00
2023-03-05T18:36:09.777Z,99104.63
2023-03-05T18:39:13.130Z,99100.97
2023-03-05T18:42:16.164Z,99103.81
2023-03-05T18:45:20.772Z,99103.59
2023-03-05T18:48:23.996Z,99100.63
2023-03-05T18:51:28.518Z,99100.28
2023-03-05T18:54:33.268Z,99104.63
2023-03-05T18:57:36.010Z,99097.22
2023-03-05T19:00:40.878Z,99080.28
2023-03-05T19:03:44.752Z,99086.28
2023-03-05T19:06:47.787Z,99095.13
2023-03-05T19:09:58.880Z,99093.09
2023-03-05T19:13:40.462Z,99091.69
2023-03-05T19:16:44.272Z,99089.19
2023-03-05T19:19:54.991Z,99089.44
2023-03-05T19:22:57.667Z,99090.72
2023-03-05T19:26:02.225Z,99078.84
2023-03-05T19:29:06.473Z,99084.59
2023-03-05T19:32:12.928Z,99092.81
2023-03-05T19:35:16.572Z,99091.00
2023-03-05T19:38:19.715Z,99093.97
2023-03-05T19:41:23.079Z,99094.66
2023-03-05T19:44:27.020Z,99089.69
2023-03-05T19:47:29.688Z,99085.44
2023-03-05T19:50:34.459Z,99089.34
2023-03-05T19:53:38.259Z,99092.03
2023-03-05T19:56:42.547Z,99089.34
2023-03-05T19:59:46.799Z,99090.59
2023-03-05T20:02:49.764Z,99090.03
2023-03-05T20:05:52.749Z,99091.28
2023-03-05T20:08:56.323Z,99083.28
2023-03-05T20:12:02.991Z,99084.09
2023-03-05T20:15:06.148Z,99086.44
2023-03-05T20:18:10.045Z,99081.03
2023-03-05T20:21:21.133Z,99092.06
2023-03-05T20:24:24.353Z,99086.06
2023-03-05T20:27:26.972Z,99069.16
2023-03-05T20:30:30.005Z,99065.38
2023-03-05T20:33:32.784Z,99069.84
2023-03-05T20:36:35.917Z,99070.91
2023-03-05T20:39:38.529Z,99078.66
2023-03-05T20:42:41.935Z,99065.84
2023-03-05T20:45:45.096Z,99060.06
2023-03-05T20:48:50.403Z,99070.84
2023-03-05T20:51:53.160Z,99067.59
2023-03-05T20:54:56.237Z,99065.09
2023-03-05T20:57:58.963Z,99068.47
2023-03-05T21:01:02.215Z,99069.28
2023-03-05T21:04:05.407Z,99072.69
2023-03-05T21:07:09.681Z,99070.19
2023-03-05T21:10:14.102Z,99061.88
2023-03-05T21:13:17.092Z,99068.19
2023-03-05T21:16:24.301Z,99065.47
2023-03-05T21:19:27.362Z,99065.09
2023-03-05T21:22:30.356Z,99043.25
2023-03-05T21:25:33.497Z,99057.09
2023-03-05T21:28:36.170Z,99058.25
2023-03-05T21:31:39.523Z,99060.31
2023-03-05T21:34:43.571Z,99053.72
2023-03-05T21:37:46.787Z,99041.13
2023-03-05T21:40:50.419Z,99052.91
2023-03-05T21:43:53.422Z,99057.47
2023-03-05T21:46:56.241Z,99049.22
2023-03-05T21:49:59.143Z,99047.06
2023-03-05T21:53:03.025Z,99036.72
2023-03-05T21:56:26.040Z,99050.56
2023-03-05T21:59:28.794Z,99056.22
2023-03-05T22:02:31.868Z,99061.00
2023-03-05T22:05:34.846Z,99048.56
2023-03-05T22:08:37.737Z,99046.69
2023-03-05T22:11:42.827Z,99044.28
2023-03-05T22:14:45.412Z,99052.75
2023-03-05T22:17:48.773Z,99050.06
2023-03-05T22:20:52.465Z,99044.66
2023-03-05T22:23:59.449Z,99040.28
2023-03-05T22:27:02.127Z,99038.88
2023-03-05T22:30:14.162Z,99036.41
2023-03-05T22:33:16.877Z,99044.97
2023-03-05T22:36:20.786Z,99030.25
2023-03-05T22:39:23.940Z,99025.91
2023-03-05T22:42:27.146Z,99033.63
2023-03-05T22:45:29.754Z,99036.75
2023-03-05T22:48:32.611Z,99012.56
2023-03-05T22:51:35.575Z,99027.69
2023-03-05T22:54:38.567Z,99035.84
2023-03-05T22:57:41.199Z,99034.44
2023-03-05T23:00:44.339Z,99032.59
2023-03-05T23:04:32.357Z,99024.38
2023-03-05T23:07:47.540Z,99028.72
2023-03-05T23:10:50.256Z,99027.28
2023-03-05T23:13:53.420Z,99004.56
2023-03-05T23:16:56.036Z,99021.50
2023-03-05T23:19:59.063Z,99015.72
2023-03-05T23:23:03.331Z,98995.50
2023-03-05T23:26:06.339Z,99000.28
2023-03-05T23:29:08.985Z,99015.34
2023-03-05T23:32:11.988Z,99013.13
2023-03-05T23:35:17.764Z,99020.13
2023-03-05T23:38:21.560Z,99016.81
2023-03-05T23:41:24.235Z,99017.87
2023-03-05T23:44:27.253Z,98999.75
2023-03-05T23:47:29.808Z,99009.66
2023-03-05T23:50:35.704Z,99005.31
2023-03-05T23:53:38.454Z,99005.75
2023-03-05T23:56:41.491Z,99009.91
2023-03-05T23:59:44.227Z,99010.63
